Time;durP1;ratioP1;P1;durP2;ratioP2;P2;SDS_P1;SDS_P2;PMS_P1;PMS_P2;Temp;Humidity;BMP_temperature;BMP_pressure;BME280_temperature;BME280_humidity;BME280_pressure;Samples;Min_cycle;Max_cycle;Signal;HPM_P1;HPM_P2
2023/02/11 00:03:28;;;;;;;19.10;11.70;;;;;;;-0.02;92.09;100832.90;450640;1250;141895;-67
2023/02/11 00:13:33;;;;;;;;;;;;;;;-0.02;92.01;100817.92;450168;1248;211407;-67
2023/02/11 00:23:39;;;;;;;20.30;12.50;;;;;;;-0.05;91.81;100825.16;446859;1250;128571;-67
2023/02/11 00:33:46;;;;;;;21.50;12.60;;;;;;;-0.07;91.39;100814.48;449796;1250;142538;-69
2023/02/11 00:43:52;;;;;;;18.90;12.00;;;;;;;-0.12;91.08;100803.99;440301;1250;141605;-69
2023/02/11 00:53:58;;;;;;;24.90;14.10;;;;;;;-0.19;90.95;100789.54;446597;1250;145574;-69
2023/02/11 01:04:04;;;;;;;24.30;15.00;;;;;;;-0.23;90.72;100781.61;437634;1250;143591;-69
2023/02/11 01:14:10;;;;;;;21.10;15.30;;;;;;;-0.32;90.50;100747.55;437816;1251;142278;-70
2023/02/11 01:24:16;;;;;;;27.30;16.50;;;;;;;-0.40;90.42;100711.93;437937;1250;141723;-69
2023/02/11 01:34:24;;;;;;;31.50;18.90;;;;;;;-0.46;90.16;100679.77;437628;1253;143185;-70
2023/02/11 01:44:33;;;;;;;22.20;15.10;;;;;;;-0.51;89.98;100659.13;437865;1250;142132;-69
2023/02/11 02:05:14;;;;;;;26.90;15.80;;;;;;;-0.54;89.42;100645.55;438634;1253;141916;-72
2023/02/11 02:15:23;;;;;;;25.80;17.40;;;;;;;-0.52;89.48;100614.40;438143;1253;141777;-69
2023/02/11 02:26:02;;;;;;;24.10;15.20;;;;;;;-0.50;89.13;100598.06;441028;1251;142673;-69
2023/02/11 02:36:22;;;;;;;21.00;16.20;;;;;;;-0.51;88.94;100566.59;437896;1251;142376;-68
2023/02/11 02:46:30;;;;;;;25.20;15.60;;;;;;;-0.52;88.56;100558.15;436856;1250;142091;-69
2023/02/11 02:56:45;;;;;;;25.90;15.40;;;;;;;-0.57;88.43;100559.89;438239;1251;142653;-69
2023/02/11 03:06:57;;;;;;;23.50;15.30;;;;;;;-0.59;88.33;100588.44;437405;1251;142353;-69
2023/02/11 03:17:07;;;;;;;20.30;14.10;;;;;;;-0.55;88.23;100543.38;441438;1250;142343;-69
2023/02/11 03:27:20;;;;;;;22.30;15.30;;;;;;;-0.55;88.15;100469.42;439580;1251;142340;-69
2023/02/11 03:37:33;;;;;;;22.10;14.70;;;;;;;-0.56;87.91;100490.91;436840;1252;142158;-71
2023/02/11 03:47:42;;;;;;;21.70;15.20;;;;;;;-0.67;87.76;100496.11;437739;1253;141942;-71
2023/02/11 03:57:48;;;;;;;21.30;14.50;;;;;;;-0.80;87.85;100485.13;438583;1253;144107;-69
2023/02/11 04:07:54;;;;;;;25.40;15.20;;;;;;;-0.94;87.71;100453.89;437956;1253;142249;-68
2023/02/11 04:18:02;;;;;;;24.80;17.00;;;;;;;-1.04;88.11;100428.14;437924;1251;144634;-69
2023/02/11 04:28:08;;;;;;;28.60;16.80;;;;;;;-1.09;87.92;100421.79;437903;1250;142730;-71
2023/02/11 04:38:14;;;;;;;24.70;15.40;;;;;;;-1.16;87.73;100394.48;440417;1250;144564;-70
2023/02/11 04:48:20;;;;;;;21.90;15.40;;;;;;;-1.21;87.90;100372.67;439525;1250;142569;-70
2023/02/11 04:58:26;;;;;;;23.70;16.00;;;;;;;-1.24;87.93;100354.99;436799;1251;141204;-70
2023/02/11 05:08:32;;;;;;;27.00;17.60;;;;;;;-1.27;87.97;100370.97;438887;1253;142016;-70
2023/02/11 05:18:40;;;;;;;28.90;18.00;;;;;;;-1.04;88.24;100362.48;436743;1250;143315;-70
2023/02/11 05:28:47;;;;;;;24.70;19.10;;;;;;;-0.83;88.01;100355.35;437555;1251;141814;-70
2023/02/11 05:38:53;;;;;;;27.40;17.10;;;;;;;-0.69;87.89;100339.13;437680;1253;142262;-70
2023/02/11 05:48:58;;;;;;;25.80;17.00;;;;;;;-0.54;87.62;100323.73;437775;1251;142255;-70
2023/02/11 05:59:04;;;;;;;26.60;18.20;;;;;;;-0.46;87.29;100316.45;438502;1253;141793;-70
2023/02/11 06:09:11;;;;;;;31.40;19.90;;;;;;;-0.42;87.15;100309.52;439497;1253;142050;-70
2023/02/11 06:19:17;;;;;;;27.20;17.60;;;;;;;-0.42;87.12;100302.13;437125;1251;142541;-69
2023/02/11 06:29:23;;;;;;;28.00;18.00;;;;;;;-0.38;87.02;100302.63;437989;1249;142234;-69
2023/02/11 06:39:29;;;;;;;34.90;22.20;;;;;;;-0.24;86.95;100288.23;437688;1253;141711;-69
2023/02/11 06:49:34;;;;;;;;;;;;;;;-0.04;86.70;100275.67;437283;1253;209015;-70
2023/02/11 06:59:40;;;;;;;38.00;21.80;;;;;;;0.05;86.36;100264.04;437924;1253;128137;-71
2023/02/11 07:09:46;;;;;;;33.30;22.30;;;;;;;0.13;86.52;100253.46;436942;1253;141933;-70
2023/02/11 07:19:52;;;;;;;31.10;21.30;;;;;;;0.21;86.53;100236.16;437675;1251;140928;-70
2023/02/11 07:29:58;;;;;;;35.40;21.40;;;;;;;0.33;86.65;100236.73;437527;1253;141811;-70
2023/02/11 07:40:04;;;;;;;34.80;22.80;;;;;;;0.37;86.76;100253.22;436801;1253;142991;-71
2023/02/11 07:50:10;;;;;;;36.70;21.90;;;;;;;0.32;87.02;100267.05;438252;1253;141903;-70
2023/02/11 08:00:18;;;;;;;30.30;19.80;;;;;;;0.25;87.42;100266.59;440425;1253;142156;-70
2023/02/11 08:10:26;;;;;;;32.30;22.40;;;;;;;0.28;88.33;100246.59;438028;1253;142197;-70
2023/02/11 08:20:32;;;;;;;31.60;22.30;;;;;;;0.21;90.68;100239.27;437744;1253;142206;-70
2023/02/11 08:30:38;;;;;;;39.30;25.10;;;;;;;0.24;92.77;100243.86;436735;1253;142283;-70
2023/02/11 08:40:44;;;;;;;40.90;24.10;;;;;;;0.33;93.96;100242.92;437456;1253;142446;-70
2023/02/11 08:50:50;;;;;;;40.00;28.40;;;;;;;0.30;94.97;100223.33;437651;1251;142294;-71
2023/02/11 09:00:56;;;;;;;40.80;25.40;;;;;;;0.21;96.26;100219.63;437097;1251;142042;-70
2023/02/11 09:11:02;;;;;;;41.50;26.20;;;;;;;0.25;97.37;100206.84;439850;1251;142311;-72
2023/02/11 09:21:10;;;;;;;38.10;26.60;;;;;;;0.35;97.72;100180.04;437662;1253;142845;-72
2023/02/11 09:31:18;;;;;;;33.80;22.40;;;;;;;0.33;98.28;100160.60;437277;1251;142249;-71
2023/02/11 09:41:55;;;;;;;31.90;23.70;;;;;;;0.34;98.80;100127.52;437850;1254;142211;-72
2023/02/11 09:52:06;;;;;;;34.70;25.00;;;;;;;0.36;99.14;100110.44;438343;1252;141924;-72
2023/02/11 10:02:24;;;;;;;36.40;25.10;;;;;;;0.40;99.34;100102.45;437925;1253;142581;-71
2023/02/11 10:12:55;;;;;;;51.30;33.20;;;;;;;0.38;99.95;100121.77;438180;1251;142334;-72
2023/02/11 10:23:08;;;;;;;45.40;31.30;;;;;;;0.41;100.00;100143.45;439494;1251;141438;-72
2023/02/11 10:33:20;;;;;;;40.00;26.80;;;;;;;0.52;100.00;100137.60;440063;1251;141758;-72
2023/02/11 10:43:30;;;;;;;40.70;26.90;;;;;;;0.62;100.00;100110.77;437073;1251;142400;-72
2023/02/11 10:53:36;;;;;;;42.90;27.80;;;;;;;0.66;100.00;100098.48;449686;1249;142401;-70
2023/02/11 11:03:50;;;;;;;38.10;24.70;;;;;;;0.74;100.00;100101.98;437002;1254;143650;-71
2023/02/11 11:13:59;;;;;;;43.70;28.80;;;;;;;0.74;100.00;100096.27;438553;1251;142863;-71
2023/02/11 11:24:14;;;;;;;35.40;25.10;;;;;;;0.74;100.00;100062.17;438330;1254;141011;-71
2023/02/11 11:34:29;;;;;;;43.80;29.30;;;;;;;0.74;100.00;100055.63;437815;1253;143420;-71
2023/02/11 11:44:37;;;;;;;49.80;30.60;;;;;;;0.74;100.00;99996.16;440453;1251;141826;-71
2023/02/11 11:54:47;;;;;;;42.20;29.60;;;;;;;0.80;100.00;99998.13;449750;1251;141999;-70
2023/02/11 12:05:07;;;;;;;41.30;28.90;;;;;;;0.94;100.00;100040.64;450446;1250;143014;-71
2023/02/11 12:15:30;;;;;;;42.60;23.40;;;;;;;1.04;100.00;100081.50;440307;1251;142258;-72
2023/02/11 12:25:43;;;;;;;39.80;24.40;;;;;;;1.19;100.00;100096.25;441500;1251;141631;-71
2023/02/11 12:35:58;;;;;;;38.70;25.80;;;;;;;1.44;100.00;100081.48;450390;1250;142170;-72
2023/02/11 12:46:43;;;;;;;37.00;23.80;;;;;;;1.64;100.00;100065.23;450060;1250;142133;-71
2023/02/11 12:56:55;;;;;;;38.00;25.40;;;;;;;1.81;100.00;100054.90;450824;1250;143344;-72
2023/02/11 13:07:09;;;;;;;41.50;26.40;;;;;;;1.90;100.00;100044.16;450004;1250;142299;-72
2023/02/11 13:17:20;;;;;;;42.80;30.20;;;;;;;2.02;100.00;100044.47;451215;1250;141894;-71
2023/02/11 13:27:37;;;;;;;40.30;27.40;;;;;;;2.08;100.00;100047.79;451176;1250;145417;-71
2023/02/11 13:37:48;;;;;;;40.10;26.30;;;;;;;2.17;100.00;100051.55;450797;1249;208318;-72
2023/02/11 13:47:59;;;;;;;37.10;26.20;;;;;;;2.20;100.00;100045.44;451209;1249;142365;-71
2023/02/11 13:58:38;;;;;;;45.20;27.90;;;;;;;2.29;100.00;100046.11;450481;1249;142698;-71
2023/02/11 14:09:07;;;;;;;42.50;27.60;;;;;;;2.31;100.00;100033.98;451095;1249;141955;-71
2023/02/11 14:19:30;;;;;;;38.70;27.10;;;;;;;2.32;100.00;100037.23;450494;1249;142035;-73
2023/02/11 14:29:41;;;;;;;40.20;26.80;;;;;;;2.37;100.00;100045.41;451192;1249;142413;-72
2023/02/11 14:40:02;;;;;;;38.50;27.30;;;;;;;2.40;100.00;100052.79;450456;1249;141862;-72
2023/02/11 14:50:19;;;;;;;37.30;26.90;;;;;;;2.40;100.00;100068.48;441948;1250;142032;-71
2023/02/11 15:00:25;;;;;;;37.90;26.80;;;;;;;2.43;100.00;100075.53;437798;1250;141572;-71
2023/02/11 15:10:35;;;;;;;38.20;25.80;;;;;;;2.42;100.00;100075.02;446398;1250;142240;-72
2023/02/11 15:20:42;;;;;;;43.70;27.00;;;;;;;2.43;100.00;100080.71;451318;1249;141960;-71
2023/02/11 15:30:56;;;;;;;33.30;24.30;;;;;;;2.46;100.00;100073.39;442140;1250;143403;-70
2023/02/11 15:41:06;;;;;;;34.50;23.70;;;;;;;2.46;100.00;100075.46;443323;1250;142633;-72
2023/02/11 15:51:21;;;;;;;32.00;21.70;;;;;;;2.46;100.00;100083.57;441417;1249;143529;-71
2023/02/11 16:01:37;;;;;;;31.70;24.00;;;;;;;2.46;100.00;100089.98;446389;1249;143212;-71
2023/02/11 16:11:56;;;;;;;29.40;23.00;;;;;;;2.45;100.00;100102.08;451180;1249;142567;-70
2023/02/11 16:22:08;;;;;;;25.90;19.30;;;;;;;2.46;100.00;100106.55;450222;1250;142292;-71
2023/02/11 16:32:19;;;;;;;32.70;21.50;;;;;;;2.49;100.00;100108.74;448131;1249;144223;-72
2023/02/11 16:42:25;;;;;;;30.70;23.00;;;;;;;2.52;100.00;100112.81;451002;1249;141901;-71
2023/02/11 16:52:36;;;;;;;26.10;20.50;;;;;;;2.53;100.00;100116.77;450575;1250;212997;-71
2023/02/11 17:02:42;;;;;;;24.30;19.00;;;;;;;2.58;100.00;100132.38;451253;1250;143257;-71
2023/02/11 17:12:49;;;;;;;27.60;20.00;;;;;;;2.63;100.00;100146.96;450454;1249;141779;-71
2023/02/11 17:22:55;;;;;;;24.40;19.30;;;;;;;2.66;100.00;100153.14;451208;1249;142554;-71
2023/02/11 17:33:01;;;;;;;23.90;17.70;;;;;;;2.70;100.00;100166.54;451123;1249;142030;-71
2023/02/11 17:43:07;;;;;;;19.70;15.60;;;;;;;2.72;100.00;100189.48;450360;1250;142640;-70
2023/02/11 17:53:13;;;;;;;17.60;14.60;;;;;;;2.75;100.00;100208.44;451210;1250;142581;-71
2023/02/11 18:03:19;;;;;;;18.50;15.10;;;;;;;2.76;100.00;100213.58;451225;1250;143139;-70
2023/02/11 18:13:25;;;;;;;18.30;14.50;;;;;;;2.77;100.00;100224.81;450367;1249;143274;-71
2023/02/11 18:23:31;;;;;;;17.40;14.60;;;;;;;2.80;100.00;100241.17;451241;1249;142236;-71
2023/02/11 18:33:38;;;;;;;15.50;13.70;;;;;;;2.81;100.00;100245.65;450356;1252;165622;-70
2023/02/11 18:43:45;;;;;;;18.80;14.60;;;;;;;2.84;100.00;100247.33;451168;1250;142155;-70
2023/02/11 18:53:51;;;;;;;17.00;13.80;;;;;;;2.87;100.00;100257.12;451116;1250;142868;-71
2023/02/11 19:04:01;;;;;;;17.10;13.00;;;;;;;2.90;100.00;100264.65;450421;1250;143194;-71
2023/02/11 19:14:09;;;;;;;16.40;13.50;;;;;;;2.95;100.00;100273.21;451157;1249;142886;-70
2023/02/11 19:24:18;;;;;;;16.30;13.80;;;;;;;3.00;100.00;100282.27;451265;1250;143078;-71
2023/02/11 19:34:24;;;;;;;16.80;12.80;;;;;;;3.07;100.00;100293.20;450267;1250;142430;-70
2023/02/11 19:44:31;;;;;;;19.40;14.50;;;;;;;3.16;100.00;100306.50;450927;1251;142125;-70
2023/02/11 19:54:37;;;;;;;21.70;13.30;;;;;;;3.25;100.00;100319.80;450311;1250;166069;-69
2023/02/11 20:04:43;;;;;;;18.20;13.50;;;;;;;3.34;100.00;100323.91;451257;1250;142100;-70
2023/02/11 20:14:49;;;;;;;20.90;16.10;;;;;;;3.43;100.00;100343.13;451053;1250;142112;-70
2023/02/11 20:24:55;;;;;;;20.40;15.20;;;;;;;3.47;100.00;100351.48;450399;1250;142999;-70
2023/02/11 20:35:01;;;;;;;21.30;13.50;;;;;;;3.49;100.00;100364.44;451079;1250;142642;-70
2023/02/11 20:45:08;;;;;;;19.60;12.40;;;;;;;3.53;100.00;100381.16;438234;1252;142284;-70
2023/02/11 20:55:14;;;;;;;23.90;13.80;;;;;;;3.55;100.00;100402.57;445037;1250;142862;-70
2023/02/11 21:05:20;;;;;;;21.30;13.20;;;;;;;3.56;100.00;100423.83;451117;1250;142848;-70
2023/02/11 21:15:26;;;;;;;28.40;17.20;;;;;;;3.58;100.00;100441.45;451156;1250;142093;-71
2023/02/11 21:25:33;;;;;;;22.40;15.10;;;;;;;3.62;100.00;100455.05;450555;1251;142876;-70
2023/02/11 21:35:39;;;;;;;22.00;15.20;;;;;;;3.64;100.00;100466.96;451053;1250;142608;-70
2023/02/11 21:45:46;;;;;;;21.00;13.50;;;;;;;3.63;100.00;100483.77;450166;1251;145121;-72
2023/02/11 21:56:06;;;;;;;19.30;12.70;;;;;;;3.64;100.00;100497.43;442070;1251;141876;-70
2023/02/11 22:06:15;;;;;;;22.60;12.90;;;;;;;3.64;100.00;100524.45;444356;1250;142369;-68
2023/02/11 22:16:26;;;;;;;20.30;14.00;;;;;;;3.61;100.00;100544.92;443480;1250;145107;-71
2023/02/11 22:26:33;;;;;;;22.50;11.20;;;;;;;3.57;100.00;100560.08;437600;1253;141728;-71
2023/02/11 22:36:41;;;;;;;14.70;10.60;;;;;;;3.49;100.00;100585.17;436638;1251;143983;-72
2023/02/11 22:46:50;;;;;;;17.00;10.00;;;;;;;3.41;100.00;100603.65;443044;1249;142805;-69
2023/02/11 22:56:55;;;;;;;17.00;9.70;;;;;;;3.35;100.00;100619.34;451034;1250;142332;-72
2023/02/11 23:07:01;;;;;;;18.90;11.10;;;;;;;3.34;100.00;100630.09;450160;1250;142720;-72
2023/02/11 23:17:07;;;;;;;19.30;10.70;;;;;;;3.30;100.00;100637.95;451085;1251;142466;-71
2023/02/11 23:27:13;;;;;;;18.60;11.50;;;;;;;3.24;100.00;100653.27;450993;1250;142611;-72
2023/02/11 23:37:19;;;;;;;22.00;13.50;;;;;;;3.16;100.00;100659.61;450269;1250;142903;-71
2023/02/11 23:47:25;;;;;;;15.10;10.20;;;;;;;3.07;100.00;100672.56;451096;1249;142574;-72
2023/02/11 23:57:33;;;;;;;14.50;10.60;;;;;;;3.00;100.00;100684.44;450910;1250;141957;-72
